Corder, Missouri
Current Conditions -  °F | °C
As of 2:15 PM on Wednesday 28 Jan 2015 (Local Time) from KRCM Reporting Station
Clear Clear  
Wind Chill: 68°   Ceiling: Unl
Heat Index: 68°   Visibility: 10mi
Dew Point: 37°   Wind: 13mph
Humidity: 33%   Direction: 160°SSE
Pressure: 29.8"   Gusts: 20mph
Location:  39.1°N, 93.64°W
Report Text: KRCM 282015Z AUTO 16011G17KT 10SM CLR 20/03 A2980 RMK AO2
Loading
Personal Weather Stations






























Interactive Weather Map New forecast layout! Learn more

10-Day Weather Forecast

Advertisements
Track Severe Weather on mobile